Latest Weather Observations for Aireys Inlet

IDV60801

Issued at 4:05 pm EDT Wednesday 26 November 2014 (issued every 30 minutes, with the page automatically refreshed every 10 minutes)

About weather observations | Map of weather stations | Latest weather observations for VIC | Other Formats
Station Details ID: 090180 Name: AIREYS INLET Lat: -38.46 Lon: 144.09 Height: 95.0 m
Data from the previous 72 hours. | See also: Recent months at Aireys Inlet
Date/Time
EDT
Temp
°C
App
Temp
°C
Dew
Point
Rel
Hum
%
Delta-T
°C
Wind Press
QNH
hPa
Press
MSL
hPa
Rain
since 9 am
mm
Dir
 
Spd
km/h
Gust
km/h
Spd
kts
Gust
kts
26/04:00pm 15.6 11.3 10.6 72 2.7 SSW 24 37 13 20 - - 0.4
26/03:30pm 15.4 11.5 10.8 74 2.5 SSW 22 33 12 18 - - 0.4
26/03:00pm 15.1 11.3 11.1 77 2.1 S 22 33 12 18 - - 0.4
26/02:30pm 14.6 11.6 11.9 84 1.5 SSW 19 32 10 17 - - 0.4
26/02:00pm 13.9 10.9 12.6 92 0.7 SSW 20 30 11 16 - - 0.4
26/01:30pm 14.0 11.3 13.5 97 0.3 SSW 20 30 11 16 - - 0.4
26/01:00pm 13.8 9.7 12.7 93 0.6 SSW 26 41 14 22 - - 0.0
26/12:30pm 15.5 12.5 12.4 82 1.7 SSW 20 30 11 16 - - 0.0
26/12:00pm 16.7 15.1 10.3 66 3.4 S 9 15 5 8 - - 0.0
26/11:30am 15.9 12.9 10.7 71 2.8 W 17 26 9 14 - - 0.0
26/11:00am 16.5 13.3 10.1 66 3.4 W 17 30 9 16 - - 0.0
26/10:30am 16.4 14.5 10.5 68 3.1 W 11 20 6 11 - - 0.0
26/10:00am 15.3 13.3 10.1 71 2.7 W 11 19 6 10 - - 0.0
26/09:30am 14.9 12.1 9.9 72 2.6 W 15 20 8 11 - - 0.0
26/09:00am 14.7 12.5 9.5 71 2.7 W 11 19 6 10 - - 0.0
26/08:30am 14.0 12.6 9.6 75 2.3 W 7 11 4 6 - - 0.0
26/08:00am 13.0 10.7 9.1 77 2.0 W 11 17 6 9 - - 0.0
26/07:30am 12.0 9.2 8.5 79 1.7 WNW 13 19 7 10 - - 0.0
26/07:00am 11.2 8.2 7.9 80 1.6 NW 13 17 7 9 - - 0.0
26/06:30am 10.4 7.0 7.5 82 1.4 NW 15 19 8 10 - - 0.0
26/06:00am 9.8 7.4 7.2 84 1.2 NW 9 11 5 6 - - 0.0
26/05:30am 9.5 7.2 7.3 86 1.0 NW 9 11 5 6 - - 0.0
26/05:00am 8.8 6.8 7.1 89 0.8 NNW 7 9 4 5 - - 0.0
26/04:30am 9.6 7.6 7.0 84 1.2 NNW 7 9 4 5 - - 0.0
26/04:00am 10.1 8.1 7.2 82 1.4 WNW 7 11 4 6 - - 0.0
26/03:30am 9.0 6.6 7.0 87 0.9 NW 9 17 5 9 - - 0.0
26/03:00am 9.8 7.4 7.2 84 1.2 NW 9 13 5 7 - - 0.0
26/02:30am 10.2 7.5 7.3 82 1.4 NW 11 13 6 7 - - 0.0
26/02:00am 10.7 7.6 7.4 80 1.6 WNW 13 15 7 8 - - 0.0
26/01:30am 10.9 7.1 7.4 79 1.7 W 17 20 9 11 - - 0.0
26/01:00am 11.1 6.8 7.2 77 1.9 W 19 24 10 13 - - 0.0
26/12:30am 10.9 7.7 6.8 76 1.9 WNW 13 15 7 8 - - 0.0
26/12:00am 10.6 7.7 6.4 75 2.0 NW 11 13 6 7 - - 0.0
 
Date/Time
EDT
Temp
°C
App
Temp
°C
Dew
Point
Rel
Hum
%
Delta-T
°C
Wind Press
QNH
hPa
Press
MSL
hPa
Rain
since 9 am
mm
Dir
 
Spd
km/h
Gust
km/h
Spd
kts
Gust
kts
25/11:30pm 11.5 8.6 6.4 71 2.4 WNW 11 13 6 7 - - 0.0
25/11:00pm 11.4 8.0 5.7 68 2.7 W 13 19 7 10 - - 0.0
25/10:30pm 11.6 8.2 5.7 67 2.8 W 13 17 7 9 - - 0.0
25/10:00pm 11.9 8.9 6.0 67 2.8 W 11 15 6 8 - - 0.0
25/09:30pm 12.2 9.2 6.0 66 2.9 W 11 15 6 8 - - 0.0
25/09:00pm 12.8 8.7 6.2 64 3.1 WSW 17 26 9 14 - - 0.0
25/08:30pm 13.3 9.6 6.4 63 3.3 WSW 15 22 8 12 - - 0.0
25/08:00pm 14.2 8.8 6.3 59 3.8 WSW 24 39 13 21 - - 0.0
25/07:30pm 15.3 9.2 6.6 56 4.3 WSW 28 41 15 22 - - 0.0
25/07:00pm 15.9 9.8 6.6 54 4.6 WSW 28 43 15 23 - - 0.0
25/06:30pm 16.7 10.6 6.8 52 4.9 WSW 28 48 15 26 - - 0.0
25/06:29pm 16.7 10.2 6.5 51 5.0 WSW 30 48 16 26 - - 0.0
25/06:00pm 17.8 12.6 7.2 50 5.3 W 24 39 13 21 - - 0.0
25/05:30pm 17.8 11.8 7.0 49 5.4 SW 28 39 15 21 - - 0.0
25/05:19pm 17.0 10.8 6.2 49 5.3 W 28 48 15 26 - - 0.0
25/05:00pm 17.9 10.9 6.7 48 5.6 W 33 46 18 25 - - 0.0
25/04:46pm 18.3 12.2 6.8 47 5.8 WSW 28 46 15 25 - - 0.0
25/04:30pm 17.9 12.1 6.4 47 5.7 W 26 43 14 23 - - 0.0
25/04:11pm 17.3 11.0 5.6 46 5.7 W 28 48 15 26 - - 0.0
25/04:00pm 18.9 12.4 6.4 44 6.2 WSW 30 44 16 24 - - 0.0
25/03:30pm 17.6 11.6 7.1 50 5.3 WSW 28 46 15 25 - - 0.0
25/03:00pm 18.6 13.9 7.7 49 5.6 WNW 22 33 12 18 - - 0.0
25/02:30pm 17.4 11.2 6.0 47 5.6 WSW 28 52 15 28 - - 0.0
25/02:01pm 18.3 12.4 7.4 49 5.5 W 28 54 15 29 - - 0.0
25/02:00pm 18.6 13.1 7.4 48 5.7 W 26 43 14 23 - - 0.0
25/01:41pm 17.2 11.1 8.1 55 4.6 W 30 50 16 27 - - 0.0
25/01:30pm 16.0 8.8 7.7 58 4.2 W 35 54 19 29 - - 0.0
25/01:26pm 17.0 10.4 7.9 55 4.6 W 32 54 17 29 - - 0.0
25/01:00pm 17.6 13.3 9.2 58 4.4 W 22 43 12 23 - - 0.0
25/12:30pm 15.5 9.8 8.5 63 3.6 W 28 43 15 23 - - 0.0
25/12:00pm 16.8 10.9 9.0 60 4.0 W 30 46 16 25 - - 0.0
25/11:30am 15.1 9.5 8.6 65 3.3 WNW 28 48 15 26 - - 0.0
25/11:26am 16.4 11.1 9.8 65 3.5 WNW 28 48 15 26 - - 0.0
25/11:00am 15.5 12.1 9.2 66 3.3 NW 17 28 9 15 - - 0.0
25/10:30am 14.7 10.7 8.9 68 3.0 W 20 33 11 18 - - 0.0
25/10:03am 14.5 8.8 8.5 67 3.0 W 28 50 15 27 - - 0.0
25/10:00am 15.1 10.4 9.2 68 3.0 W 24 37 13 20 - - 0.0
25/09:30am 13.3 9.6 9.4 77 2.0 W 19 32 10 17 - - 0.0
25/09:00am 12.7 8.3 8.8 77 2.0 W 22 33 12 18 - - 10.6
25/08:30am 12.8 9.3 8.9 77 2.0 W 17 32 9 17 - - 10.6
25/08:00am 12.3 9.2 8.8 79 1.8 W 15 28 8 15 - - 10.6
25/07:30am 11.0 7.8 8.6 85 1.2 W 15 22 8 12 - - 10.6
25/07:00am 10.2 7.7 8.3 88 0.9 WNW 11 20 6 11 - - 10.6
25/06:30am 9.8 5.7 7.9 88 0.9 WNW 19 24 10 13 - - 10.6
25/06:00am 9.5 6.2 8.1 91 0.7 WNW 15 24 8 13 - - 10.6
25/05:30am 9.5 5.8 8.1 91 0.7 WNW 17 24 9 13 - - 10.6
25/05:00am 9.5 6.2 8.1 91 0.7 NW 15 20 8 11 - - 10.6
25/04:30am 9.9 5.8 8.0 88 0.9 WNW 19 28 10 15 - - 10.6
25/04:00am 9.3 5.5 7.7 90 0.8 WNW 17 26 9 14 - - 10.6
25/03:30am 9.4 4.7 7.8 90 0.8 NW 22 32 12 17 - - 10.6
25/03:00am 9.4 5.1 7.7 89 0.8 WNW 20 28 11 15 - - 10.6
25/02:30am 9.5 4.7 7.4 87 1.0 WNW 22 33 12 18 - - 10.6
25/02:00am 9.5 5.6 7.1 85 1.1 WNW 17 24 9 13 - - 10.6
25/01:30am 10.3 5.5 7.5 83 1.3 WNW 22 33 12 18 - - 10.6
25/01:00am 10.3 6.5 7.5 83 1.3 NW 17 24 9 13 - - 10.6
25/12:30am 10.5 6.7 7.4 81 1.5 WNW 17 28 9 15 - - 10.6
25/12:00am 10.8 7.6 6.9 77 1.9 WNW 13 20 7 11 - - 10.6
 
Date/Time
EDT
Temp
°C
App
Temp
°C
Dew
Point
Rel
Hum
%
Delta-T
°C
Wind Press
QNH
hPa
Press
MSL
hPa
Rain
since 9 am
mm
Dir
 
Spd
km/h
Gust
km/h
Spd
kts
Gust
kts
24/11:30pm 11.3 7.0 6.8 74 2.1 W 19 28 10 15 - - 10.6
24/11:00pm 11.6 6.7 6.9 73 2.3 W 22 35 12 19 - - 10.6
24/10:30pm 11.7 8.7 7.8 77 1.9 W 13 20 7 11 - - 10.6
24/10:00pm 12.2 8.1 7.9 75 2.1 W 19 30 10 16 - - 10.6
24/09:30pm 12.4 8.8 8.5 77 1.9 WNW 17 22 9 12 - - 10.6
24/09:00pm 12.9 8.8 8.8 76 2.1 WSW 20 28 11 15 - - 10.6
24/08:30pm 13.4 10.7 9.1 75 2.2 W 13 26 7 14 - - 10.6
24/08:00pm 13.8 10.3 8.6 71 2.6 W 17 28 9 15 - - 10.6
24/07:30pm 15.2 11.4 9.8 70 2.8 WSW 20 32 11 17 - - 10.6
24/07:00pm 14.3 10.6 9.3 72 2.6 SW 19 37 10 20 - - 10.6
24/06:30pm 13.9 9.9 10.5 80 1.8 SW 22 35 12 19 - - 10.6
24/06:00pm 14.4 11.1 11.6 83 1.5 SW 20 35 11 19 - - 10.6
24/05:30pm 14.1 10.1 13.1 94 0.6 SW 26 46 14 25 - - 10.6
24/05:26pm 14.3 10.0 13.2 93 0.6 SW 28 46 15 25 - - 10.6
24/05:00pm 15.2 10.0 12.7 85 1.4 SW 32 44 17 24 - - 10.6
24/04:30pm 16.5 12.9 13.0 80 2.0 SW 24 37 13 20 - - 10.6
24/04:00pm 17.3 16.3 14.6 84 1.6 SW 13 20 7 11 - - 10.6
24/03:30pm 17.4 16.9 14.9 85 1.5 SW 11 15 6 8 - - 10.6
24/03:00pm 16.5 15.6 14.9 90 0.9 W 13 19 7 10 - - 10.6
24/02:30pm 16.3 14.2 14.8 91 0.9 WSW 19 28 10 15 - - 10.6
24/02:00pm 16.9 14.6 15.8 93 0.6 W 22 37 12 20 - - 10.6
24/01:30pm 15.7 14.3 15.5 99 0.1 W 17 28 9 15 - - 10.6
24/01:00pm 15.8 13.4 15.3 97 0.3 NW 22 37 12 20 - - 9.8
24/12:30pm 16.1 15.2 15.8 98 0.2 NW 15 26 8 14 - - 9.6
24/12:00pm 15.7 15.4 15.5 99 0.1 NNW 11 19 6 10 - - 9.4
24/11:30am 14.5 14.2 14.3 99 0.1 N 9 13 5 7 - - 9.0
24/11:00am 14.7 13.7 14.7 100 0.0 NNE 13 24 7 13 - - 6.8
24/10:30am 14.7 14.5 14.7 100 0.0 NNE 9 15 5 8 - - 4.2
24/10:00am 14.8 15.5 14.6 99 0.1 NNE 4 9 2 5 - - 0.4
24/09:30am 14.6 15.3 14.4 99 0.1 NW 4 7 2 4 - - 0.2
24/09:00am 14.1 14.6 13.9 99 0.1 WNW 4 7 2 4 - - 3.6
24/08:30am 13.3 11.7 12.7 96 0.3 N 13 19 7 10 - - 3.0
24/08:00am 13.9 13.7 11.9 88 1.1 SSE 4 6 2 3 - - 1.4
24/07:30am 13.6 12.1 12.0 90 0.9 SW 11 20 6 11 - - 1.4
24/07:00am 14.1 14.1 9.7 75 2.3 CALM 0 4 0 2 - - 0.0
24/06:30am 14.3 13.9 9.9 75 2.3 SW 2 6 1 3 - - 0.0
24/06:00am 13.9 13.1 9.5 75 2.3 WSW 4 7 2 4 - - 0.0
24/05:30am 13.3 11.8 8.6 73 2.4 NNW 6 7 3 4 - - 0.0
24/05:00am 13.8 12.8 8.8 72 2.5 WNW 4 4 2 2 - - 0.0
24/04:30am 13.4 12.3 8.5 72 2.5 NNW 4 4 2 2 - - 0.0
24/04:00am 13.7 13.0 8.5 71 2.6 W 2 4 1 2 - - 0.0
24/03:30am 13.2 12.2 8.9 75 2.2 WNW 4 6 2 3 - - 0.0
24/03:00am 13.0 12.1 9.1 77 2.0 NW 4 6 2 3 - - 0.0
24/02:30am 12.9 12.1 9.5 80 1.7 NNW 4 7 2 4 - - 0.0
24/02:00am 13.1 12.2 9.4 78 1.9 W 4 6 2 3 - - 0.0
24/01:30am 13.0 12.4 10.4 84 1.4 WNW 4 6 2 3 - - 0.0
24/01:00am 12.9 12.4 10.8 87 1.1 NNW 4 7 2 4 - - 0.0
24/12:30am 13.8 14.1 10.8 82 1.6 CALM 0 4 0 2 - - 0.0
24/12:00am 13.8 13.8 11.3 85 1.3 NNE 2 4 1 2 - - 0.0
 
Date/Time
EDT
Temp
°C
App
Temp
°C
Dew
Point
Rel
Hum
%
Delta-T
°C
Wind Press
QNH
hPa
Press
MSL
hPa
Rain
since 9 am
mm
Dir
 
Spd
km/h
Gust
km/h
Spd
kts
Gust
kts
23/11:30pm 13.7 13.2 11.9 89 1.0 N 6 9 3 5 - - 0.0
23/11:00pm 13.9 13.4 12.1 89 1.0 NNE 6 7 3 4 - - 0.0
23/10:30pm 14.0 13.9 12.0 88 1.1 NNE 4 4 2 2 - - 0.0
23/10:00pm 14.2 14.5 12.1 87 1.1 NNE 2 4 1 2 - - 0.0
23/09:30pm 14.7 14.2 12.0 84 1.5 E 6 7 3 4 - - 0.0
23/09:00pm 14.7 14.6 12.0 84 1.5 ESE 4 7 2 4 - - 0.0
23/08:30pm 14.8 14.3 11.9 83 1.6 E 6 7 3 4 - - 0.0
23/08:00pm 15.2 15.1 12.0 81 1.7 SE 4 6 2 3 - - 0.0
23/07:30pm 15.7 15.2 12.1 79 2.0 SSE 6 11 3 6 - - 0.0
23/07:00pm 16.1 15.4 12.1 77 2.2 S 7 11 4 6 - - 0.0
23/06:30pm 16.7 15.9 11.8 73 2.7 S 7 11 4 6 - - 0.0
23/06:00pm 16.9 15.3 11.6 71 2.9 S 11 17 6 9 - - 0.0
23/05:30pm 17.3 16.2 12.0 71 2.9 S 9 15 5 8 - - 0.0
23/05:00pm 17.3 15.8 11.8 70 3.0 S 11 17 6 9 - - 0.0
23/04:30pm 17.3 15.3 11.6 69 3.1 S 13 20 7 11 - - 0.0

Other Formats:

Comma delimited format used in spreadsheet applications
http://www.bom.gov.au/fwo/IDV60801/IDV60801.94846.axf

JavaScript Object Notation format (JSON) in row-major order
http://www.bom.gov.au/fwo/IDV60801/IDV60801.94846.json